Time;durP1;ratioP1;P1;durP2;ratioP2;P2;SDS_P1;SDS_P2;PMS_P1;PMS_P2;Temp;Humidity;BMP_temperature;BMP_pressure;BME280_temperature;BME280_humidity;BME280_pressure;Samples;Min_cycle;Max_cycle;Signal;HPM_P1;HPM_P2
2021/12/26 00:01:11;;;;;;;7.50;3.55;;;;;;;;;;6208529;23;20019;-81
2021/12/26 00:03:39;;;;;;;6.80;3.90;;;;;;;;;;6208520;23;20016;-81
2021/12/26 00:06:08;;;;;;;7.75;3.67;;;;;;;;;;6209385;23;20454;-81
2021/12/26 00:08:35;;;;;;;6.95;3.30;;;;;;;;;;6208453;23;20818;-81
2021/12/26 00:11:01;;;;;;;9.02;3.83;;;;;;;;;;6208361;23;20143;-81
2021/12/26 00:13:29;;;;;;;6.13;3.15;;;;;;;;;;6208130;23;20156;-81
2021/12/26 00:15:56;;;;;;;9.43;3.67;;;;;;;;;;6208451;23;20020;-81
2021/12/26 00:18:22;;;;;;;7.25;3.75;;;;;;;;;;6208235;23;20071;-81
2021/12/26 00:20:48;;;;;;;7.13;3.05;;;;;;;;;;6208492;23;20072;-81
2021/12/26 00:23:16;;;;;;;10.15;3.53;;;;;;;;;;6208661;23;20288;-81
2021/12/26 00:25:43;;;;;;;9.23;4.50;;;;;;;;;;6208959;23;20027;-81
2021/12/26 00:28:09;;;;;;;11.45;5.00;;;;;;;;;;6208262;23;20020;-81
2021/12/26 00:30:35;;;;;;;10.38;4.35;;;;;;;;;;6208195;23;20013;-81
2021/12/26 00:33:01;;;;;;;10.32;4.50;;;;;;;;;;6183552;23;20027;-81
2021/12/26 00:35:28;;;;;;;6.93;3.67;;;;;;;;;;6208190;23;20043;-81
2021/12/26 00:37:54;;;;;;;8.82;4.30;;;;;;;;;;6207909;23;20375;-80
2021/12/26 00:40:21;;;;;;;8.07;3.85;;;;;;;;;;6207655;23;20016;-81
2021/12/26 00:42:48;;;;;;;8.85;3.95;;;;;;;;;;6208009;23;20028;-81
2021/12/26 00:45:16;;;;;;;7.93;3.72;;;;;;;;;;6208134;23;20020;-81
2021/12/26 00:47:42;;;;;;;7.55;3.72;;;;;;;;;;6208573;23;20495;-81
2021/12/26 00:50:14;;;;;;;6.72;3.53;;;;;;;;;;6208211;23;20012;-81
2021/12/26 00:52:41;;;;;;;8.95;3.83;;;;;;;;;;6208367;23;20013;-81
2021/12/26 00:55:09;;;;;;;8.32;3.60;;;;;;;;;;6208050;23;20350;-81
2021/12/26 00:57:35;;;;;;;7.45;3.63;;;;;;;;;;6208716;23;20092;-81
2021/12/26 01:00:01;;;;;;;8.13;3.58;;;;;;;;;;6208071;23;20584;-81
2021/12/26 01:02:27;;;;;;;7.45;3.70;;;;;;;;;;6208159;23;20013;-81
2021/12/26 01:04:54;;;;;;;8.63;3.75;;;;;;;;;;6183148;23;20406;-81
2021/12/26 01:07:53;;;;;;;8.73;3.60;;;;;;;;;;6207834;23;20017;-81
2021/12/26 01:10:07;;;;;;;10.57;3.58;;;;;;;;;;6207271;23;20389;-81
2021/12/26 01:12:33;;;;;;;7.75;3.03;;;;;;;;;;6207958;23;20074;-81
2021/12/26 01:15:05;;;;;;;5.97;3.40;;;;;;;;;;6208138;23;20396;-81
2021/12/26 01:17:31;;;;;;;8.75;3.40;;;;;;;;;;6208185;23;20473;-81
2021/12/26 01:19:57;;;;;;;6.35;3.17;;;;;;;;;;6208089;23;20341;-81
2021/12/26 01:22:24;;;;;;;6.40;3.25;;;;;;;;;;6207906;23;20023;-81
2021/12/26 01:24:57;;;;;;;6.78;3.67;;;;;;;;;;6207996;23;20024;-81
2021/12/26 01:27:24;;;;;;;8.00;3.50;;;;;;;;;;6182851;23;20468;-81
2021/12/26 01:29:50;;;;;;;5.85;3.00;;;;;;;;;;6208334;23;20016;-81
2021/12/26 01:32:17;;;;;;;7.28;3.50;;;;;;;;;;6207719;23;20026;-80
2021/12/26 01:34:44;;;;;;;7.30;3.22;;;;;;;;;;6207821;23;20012;-81
2021/12/26 01:37:10;;;;;;;6.68;2.90;;;;;;;;;;6208179;23;20013;-81
2021/12/26 01:39:36;;;;;;;8.60;3.75;;;;;;;;;;6207919;23;20020;-81
2021/12/26 01:42:03;;;;;;;8.55;3.50;;;;;;;;;;6207674;23;20151;-81
2021/12/26 01:44:31;;;;;;;7.65;3.20;;;;;;;;;;6183188;23;20024;-80
2021/12/26 01:47:00;;;;;;;8.82;3.47;;;;;;;;;;6207742;23;20067;-80
2021/12/26 01:49:28;;;;;;;8.88;3.63;;;;;;;;;;6207970;23;20391;-81
2021/12/26 01:51:57;;;;;;;6.15;3.25;;;;;;;;;;6208477;23;20338;-81
2021/12/26 01:55:01;;;;;;;6.70;3.33;;;;;;;;;;6209744;23;20016;-81
2021/12/26 01:57:18;;;;;;;6.97;3.20;;;;;;;;;;6203648;23;20339;-81
2021/12/26 01:59:46;;;;;;;7.55;3.53;;;;;;;;;;6209627;23;20035;-81
2021/12/26 02:02:13;;;;;;;6.93;3.47;;;;;;;;;;6209491;23;20358;-81
2021/12/26 02:04:40;;;;;;;6.05;3.28;;;;;;;;;;6209531;23;20020;-80
2021/12/26 02:07:07;;;;;;;6.35;3.30;;;;;;;;;;6209618;23;20466;-81
2021/12/26 02:09:33;;;;;;;9.40;3.28;;;;;;;;;;6210042;23;20020;-81
2021/12/26 02:11:59;;;;;;;8.05;2.97;;;;;;;;;;6209332;23;20013;-81
2021/12/26 02:14:26;;;;;;;7.10;2.97;;;;;;;;;;6209487;23;20095;-81
2021/12/26 02:16:52;;;;;;;5.25;2.78;;;;;;;;;;6210197;23;20016;-80
2021/12/26 02:19:18;;;;;;;5.13;2.80;;;;;;;;;;6209565;23;20370;-81
2021/12/26 02:27:31;;;;;;;6.53;3.50;;;;;;;;;;6209552;23;20351;-81
2021/12/26 02:29:59;;;;;;;8.70;3.00;;;;;;;;;;6209329;23;20024;-80
2021/12/26 02:32:25;;;;;;;6.28;2.85;;;;;;;;;;6209266;23;20023;-81
2021/12/26 02:34:51;;;;;;;4.82;2.75;;;;;;;;;;6209285;23;20009;-81
2021/12/26 02:37:18;;;;;;;6.50;2.75;;;;;;;;;;6184166;23;20008;-81
2021/12/26 02:39:44;;;;;;;6.20;2.53;;;;;;;;;;6209624;23;20327;-81
2021/12/26 02:42:11;;;;;;;6.68;2.83;;;;;;;;;;6209143;23;20020;-81
2021/12/26 02:44:37;;;;;;;4.82;2.50;;;;;;;;;;6209164;23;20021;-80
2021/12/26 02:47:03;;;;;;;6.43;2.67;;;;;;;;;;6209707;23;20438;-81
2021/12/26 02:49:30;;;;;;;7.95;2.88;;;;;;;;;;6209851;23;20446;-81
2021/12/26 02:51:56;;;;;;;7.30;2.70;;;;;;;;;;6209360;23;20013;-81
2021/12/26 02:54:26;;;;;;;5.50;2.70;;;;;;;;;;6208994;23;20016;-81
2021/12/26 02:56:52;;;;;;;4.75;2.67;;;;;;;;;;6208563;23;20067;-81
2021/12/26 02:59:18;;;;;;;7.50;2.92;;;;;;;;;;6209109;23;20063;-80
2021/12/26 03:01:44;;;;;;;5.65;2.55;;;;;;;;;;6209389;23;20407;-81
2021/12/26 03:04:10;;;;;;;6.00;2.60;;;;;;;;;;6208563;23;20016;-81
2021/12/26 03:09:13;;;;;;;5.72;2.58;;;;;;;;;;6209062;23;20051;-81
2021/12/26 03:11:39;;;;;;;5.13;2.13;;;;;;;;;;6208833;23;20450;-81
2021/12/26 03:14:06;;;;;;;6.65;2.40;;;;;;;;;;6208936;23;20012;-81
2021/12/26 03:16:32;;;;;;;6.35;2.50;;;;;;;;;;6209099;23;20190;-81
2021/12/26 03:19:00;;;;;;;4.60;2.45;;;;;;;;;;6208772;23;20549;-81
2021/12/26 03:21:27;;;;;;;4.68;2.40;;;;;;;;;;6208851;23;20021;-81
2021/12/26 03:23:53;;;;;;;5.68;2.95;;;;;;;;;;6183809;23;20012;-81
2021/12/26 03:26:19;;;;;;;6.97;2.53;;;;;;;;;;6208792;23;20415;-81
2021/12/26 03:28:45;;;;;;;6.38;2.47;;;;;;;;;;6208675;23;20017;-81
2021/12/26 03:31:12;;;;;;;7.82;2.58;;;;;;;;;;6208761;23;20024;-81
2021/12/26 03:33:38;;;;;;;5.05;2.22;;;;;;;;;;6208574;23;20382;-81
2021/12/26 03:36:04;;;;;;;5.07;2.42;;;;;;;;;;6208887;23;20024;-81
2021/12/26 03:38:30;;;;;;;7.13;2.97;;;;;;;;;;6208903;23;20461;-81
2021/12/26 03:40:57;;;;;;;5.93;2.83;;;;;;;;;;6208533;23;20395;-81
2021/12/26 03:43:24;;;;;;;7.25;2.83;;;;;;;;;;6208783;23;20094;-81
2021/12/26 03:45:51;;;;;;;5.90;2.83;;;;;;;;;;6208622;23;20609;-81
2021/12/26 03:48:18;;;;;;;5.85;2.35;;;;;;;;;;6208704;23;20056;-81
2021/12/26 03:50:45;;;;;;;6.75;2.70;;;;;;;;;;6208777;23;20346;-81
2021/12/26 03:53:12;;;;;;;6.15;2.70;;;;;;;;;;6208520;23;20457;-81
2021/12/26 03:55:39;;;;;;;5.13;2.88;;;;;;;;;;6208464;23;20070;-81
2021/12/26 03:58:05;;;;;;;5.88;2.58;;;;;;;;;;6208396;23;20101;-81
2021/12/26 04:00:32;;;;;;;5.95;2.63;;;;;;;;;;6208840;23;20127;-81
2021/12/26 04:02:58;;;;;;;6.47;2.90;;;;;;;;;;6183475;23;20016;-81
2021/12/26 04:05:24;;;;;;;4.97;2.60;;;;;;;;;;6208511;23;20062;-81
2021/12/26 04:07:51;;;;;;;8.15;2.85;;;;;;;;;;6208476;23;20048;-81
2021/12/26 04:10:18;;;;;;;5.80;2.72;;;;;;;;;;6208476;23;20016;-81
2021/12/26 04:12:48;;;;;;;5.93;2.72;;;;;;;;;;6208757;23;20013;-81
2021/12/26 04:15:15;;;;;;;6.25;2.85;;;;;;;;;;6208073;23;20215;-81
2021/12/26 04:17:41;;;;;;;6.68;2.65;;;;;;;;;;6208153;23;20044;-81
2021/12/26 04:20:08;;;;;;;5.63;2.53;;;;;;;;;;6208331;23;20008;-81
2021/12/26 04:22:34;;;;;;;5.88;2.63;;;;;;;;;;6208482;23;20070;-81
2021/12/26 04:25:01;;;;;;;6.20;3.30;;;;;;;;;;6208303;23;20013;-80
2021/12/26 04:27:28;;;;;;;5.57;2.85;;;;;;;;;;6208562;23;20016;-80
2021/12/26 04:29:54;;;;;;;6.35;2.75;;;;;;;;;;6183413;23;20012;-80
2021/12/26 04:32:21;;;;;;;5.13;2.78;;;;;;;;;;6208160;23;20469;-80
2021/12/26 04:34:47;;;;;;;6.43;2.88;;;;;;;;;;6208742;23;20016;-81
2021/12/26 04:37:13;;;;;;;6.13;2.75;;;;;;;;;;6208263;23;20012;-80
2021/12/26 04:39:40;;;;;;;7.93;3.25;;;;;;;;;;6208601;23;20015;-80
2021/12/26 04:42:06;;;;;;;6.85;3.08;;;;;;;;;;6208092;23;20062;-81
2021/12/26 04:44:33;;;;;;;7.07;3.05;;;;;;;;;;6183193;23;20458;-80
2021/12/26 04:46:59;;;;;;;5.93;2.80;;;;;;;;;;6208107;23;20328;-81
2021/12/26 04:49:25;;;;;;;5.97;2.95;;;;;;;;;;6183146;23;20023;-81
2021/12/26 04:51:51;;;;;;;6.10;2.83;;;;;;;;;;6208076;23;20103;-80
2021/12/26 04:54:18;;;;;;;7.57;3.53;;;;;;;;;;6208007;23;20013;-81
2021/12/26 04:56:44;;;;;;;7.32;3.10;;;;;;;;;;6208182;23;20143;-81
2021/12/26 04:59:11;;;;;;;7.13;3.60;;;;;;;;;;6208250;23;20039;-81
2021/12/26 05:01:37;;;;;;;10.77;3.95;;;;;;;;;;6208110;23;20009;-81
2021/12/26 05:04:04;;;;;;;6.20;3.17;;;;;;;;;;6208496;23;20091;-81
2021/12/26 05:06:30;;;;;;;7.47;3.17;;;;;;;;;;6208059;23;20014;-81
2021/12/26 05:08:57;;;;;;;6.47;3.08;;;;;;;;;;6208435;23;20088;-81
2021/12/26 05:11:23;;;;;;;6.47;3.30;;;;;;;;;;6208000;23;20326;-81
2021/12/26 05:13:49;;;;;;;8.30;3.40;;;;;;;;;;6207930;23;20013;-81
2021/12/26 05:16:15;;;;;;;6.90;3.75;;;;;;;;;;6207788;23;20447;-80
2021/12/26 05:18:45;;;;;;;7.72;3.35;;;;;;;;;;6208255;23;20024;-81
2021/12/26 05:21:11;;;;;;;6.85;3.47;;;;;;;;;;6208052;23;20023;-80
2021/12/26 05:23:37;;;;;;;7.13;3.55;;;;;;;;;;6207929;23;20012;-81
2021/12/26 05:26:04;;;;;;;8.13;3.90;;;;;;;;;;6208058;23;20031;-81
2021/12/26 05:28:30;;;;;;;8.63;3.85;;;;;;;;;;6209620;23;20020;-80
2021/12/26 05:31:02;;;;;;;7.35;3.33;;;;;;;;;;6210490;23;20338;-81
2021/12/26 05:33:28;;;;;;;7.28;3.65;;;;;;;;;;6209711;23;20047;-81
2021/12/26 05:35:54;;;;;;;10.30;4.28;;;;;;;;;;6210261;23;20009;-81
2021/12/26 05:38:26;;;;;;;7.32;3.65;;;;;;;;;;6210121;23;20434;-80
2021/12/26 05:40:52;;;;;;;8.18;3.90;;;;;;;;;;6209630;23;20025;-80
2021/12/26 05:43:18;;;;;;;7.45;3.55;;;;;;;;;;6209773;23;20052;-81
2021/12/26 05:45:44;;;;;;;8.45;4.32;;;;;;;;;;6209694;23;20513;-81
2021/12/26 05:48:11;;;;;;;6.97;3.80;;;;;;;;;;6184741;23;20092;-80
2021/12/26 05:50:37;;;;;;;6.95;3.65;;;;;;;;;;6209581;23;20016;-80
2021/12/26 05:53:03;;;;;;;7.90;3.88;;;;;;;;;;6210003;23;20024;-80
2021/12/26 05:55:31;;;;;;;8.63;4.00;;;;;;;;;;6210186;23;20469;-80
2021/12/26 05:57:57;;;;;;;8.05;4.10;;;;;;;;;;6209702;23;20019;-80
2021/12/26 06:00:23;;;;;;;7.10;4.10;;;;;;;;;;6211353;23;20009;-81
2021/12/26 06:02:50;;;;;;;8.50;3.92;;;;;;;;;;6212475;23;20446;-80
2021/12/26 06:05:18;;;;;;;7.93;4.00;;;;;;;;;;6212491;23;20043;-80
2021/12/26 06:07:44;;;;;;;7.55;4.32;;;;;;;;;;6187295;23;20081;-81
2021/12/26 06:10:10;;;;;;;8.60;3.90;;;;;;;;;;6211766;23;20017;-81
2021/12/26 06:12:37;;;;;;;8.60;3.97;;;;;;;;;;6211894;23;20021;-80
2021/12/26 06:15:04;;;;;;;7.65;4.18;;;;;;;;;;6212207;23;20013;-80
2021/12/26 06:17:36;;;;;;;7.65;3.63;;;;;;;;;;6212056;23;20012;-80
2021/12/26 06:20:04;;;;;;;7.90;3.97;;;;;;;;;;6212080;23;20389;-81
2021/12/26 06:22:30;;;;;;;8.60;4.63;;;;;;;;;;6212031;23;20443;-81
2021/12/26 06:24:56;;;;;;;9.75;4.82;;;;;;;;;;6212278;23;20075;-81
2021/12/26 06:27:22;;;;;;;8.77;4.18;;;;;;;;;;6212430;23;20024;-81
2021/12/26 06:29:49;;;;;;;7.15;4.18;;;;;;;;;;6211604;23;20017;-80
2021/12/26 06:32:15;;;;;;;6.82;4.13;;;;;;;;;;6211744;23;20016;-80
2021/12/26 06:34:41;;;;;;;8.85;4.95;;;;;;;;;;6209387;23;20021;-80
2021/12/26 06:37:07;;;;;;;8.73;4.90;;;;;;;;;;6208850;23;20017;-80
2021/12/26 06:39:34;;;;;;;7.78;4.57;;;;;;;;;;6208782;23;20015;-81
2021/12/26 06:42:00;;;;;;;8.48;4.47;;;;;;;;;;6208881;23;20028;-80
2021/12/26 06:44:26;;;;;;;10.48;5.18;;;;;;;;;;6209238;23;20458;-80
2021/12/26 06:46:52;;;;;;;9.52;4.68;;;;;;;;;;6184232;23;20017;-81
2021/12/26 06:49:19;;;;;;;8.63;4.75;;;;;;;;;;6209060;23;20047;-81
2021/12/26 06:51:48;;;;;;;9.55;4.72;;;;;;;;;;6208951;23;20021;-80
2021/12/26 06:54:14;;;;;;;9.23;5.07;;;;;;;;;;6209121;23;20083;-81
2021/12/26 06:56:40;;;;;;;9.82;5.43;;;;;;;;;;6209163;23;20020;-81
2021/12/26 06:59:07;;;;;;;9.52;5.40;;;;;;;;;;6209040;23;20008;-81
2021/12/26 07:01:34;;;;;;;8.80;4.45;;;;;;;;;;6183966;23;20109;-80
2021/12/26 07:04:00;;;;;;;9.77;4.93;;;;;;;;;;6208918;23;20009;-81
2021/12/26 07:06:26;;;;;;;9.25;5.20;;;;;;;;;;6183854;23;20008;-81
2021/12/26 07:08:53;;;;;;;9.90;5.50;;;;;;;;;;6209203;23;20008;-81
2021/12/26 07:11:22;;;;;;;10.98;5.05;;;;;;;;;;6184195;23;20346;-81
2021/12/26 07:13:48;;;;;;;10.07;5.20;;;;;;;;;;6208745;23;20111;-81
2021/12/26 07:16:15;;;;;;;10.75;5.20;;;;;;;;;;6208836;23;20031;-81
2021/12/26 07:18:41;;;;;;;9.85;5.65;;;;;;;;;;6208789;23;20040;-82
2021/12/26 07:21:07;;;;;;;9.82;5.30;;;;;;;;;;6208964;23;20067;-82
2021/12/26 07:23:33;;;;;;;9.90;6.28;;;;;;;;;;6209078;23;20024;-81
2021/12/26 07:26:00;;;;;;;9.45;5.10;;;;;;;;;;6208631;23;20066;-81
2021/12/26 07:28:26;;;;;;;12.85;5.82;;;;;;;;;;6183772;23;20524;-82
2021/12/26 07:30:53;;;;;;;10.13;5.70;;;;;;;;;;6208390;23;20481;-82
2021/12/26 07:33:19;;;;;;;11.68;5.90;;;;;;;;;;6183572;23;20013;-82
2021/12/26 07:35:45;;;;;;;9.27;5.47;;;;;;;;;;6208623;23;20012;-82
2021/12/26 07:38:11;;;;;;;10.40;5.97;;;;;;;;;;6209099;23;20561;-81
2021/12/26 07:40:37;;;;;;;11.30;5.30;;;;;;;;;;6207081;23;20016;-81
2021/12/26 07:43:03;;;;;;;9.10;5.47;;;;;;;;;;6207207;23;20027;-80
2021/12/26 07:45:30;;;;;;;9.52;5.72;;;;;;;;;;6210287;23;20043;-81
2021/12/26 07:47:56;;;;;;;10.93;5.18;;;;;;;;;;6208017;23;20020;-81
2021/12/26 07:50:22;;;;;;;10.15;5.82;;;;;;;;;;6207030;23;20316;-81
2021/12/26 07:52:52;;;;;;;8.68;5.25;;;;;;;;;;6207909;23;20439;-82
2021/12/26 07:55:18;;;;;;;11.48;5.32;;;;;;;;;;6183300;23;20066;-81
2021/12/26 07:57:48;;;;;;;11.40;5.93;;;;;;;;;;6207832;23;20008;-82
2021/12/26 08:00:15;;;;;;;9.70;6.18;;;;;;;;;;6207341;23;20096;-81
2021/12/26 08:02:42;;;;;;;10.43;5.90;;;;;;;;;;6207597;23;20043;-82
2021/12/26 08:05:08;;;;;;;11.63;6.32;;;;;;;;;;6182566;23;20063;-82
2021/12/26 08:07:34;;;;;;;9.32;6.00;;;;;;;;;;6208018;23;20458;-81
2021/12/26 08:10:01;;;;;;;10.68;6.35;;;;;;;;;;6207817;23;20022;-81
2021/12/26 08:12:28;;;;;;;10.90;6.55;;;;;;;;;;6207582;23;20017;-81
2021/12/26 08:14:54;;;;;;;11.30;6.07;;;;;;;;;;6207906;23;20023;-83
2021/12/26 08:17:24;;;;;;;9.23;5.72;;;;;;;;;;6208755;23;20012;-82
2021/12/26 08:19:50;;;;;;;10.25;6.05;;;;;;;;;;6208895;23;20012;-82
2021/12/26 08:22:16;;;;;;;10.13;6.15;;;;;;;;;;6183855;23;20013;-81
2021/12/26 08:24:42;;;;;;;11.48;6.07;;;;;;;;;;6207737;23;20012;-82
2021/12/26 08:27:08;;;;;;;11.32;5.97;;;;;;;;;;6207817;23;20039;-81
2021/12/26 08:29:35;;;;;;;10.65;6.55;;;;;;;;;;6208264;23;20464;-82
2021/12/26 08:32:01;;;;;;;9.80;6.15;;;;;;;;;;6208341;23;20096;-81
2021/12/26 08:34:28;;;;;;;10.38;6.30;;;;;;;;;;6182613;23;20017;-81
2021/12/26 08:37:00;;;;;;;11.13;5.90;;;;;;;;;;6207954;23;20015;-81
2021/12/26 08:39:27;;;;;;;11.25;6.30;;;;;;;;;;6207945;23;20008;-82
2021/12/26 08:41:53;;;;;;;10.48;7.57;;;;;;;;;;6207529;23;20446;-82
2021/12/26 08:44:20;;;;;;;10.75;6.55;;;;;;;;;;6208104;23;20036;-81
2021/12/26 08:46:47;;;;;;;10.57;6.30;;;;;;;;;;6207917;23;20350;-81
2021/12/26 08:49:13;;;;;;;8.70;6.07;;;;;;;;;;6207780;23;20013;-81
2021/12/26 08:51:40;;;;;;;12.05;6.38;;;;;;;;;;6207667;23;20375;-82
2021/12/26 08:54:06;;;;;;;11.40;6.68;;;;;;;;;;6208042;23;20342;-82
2021/12/26 08:56:33;;;;;;;10.88;6.90;;;;;;;;;;6207666;23;20009;-81
2021/12/26 08:58:59;;;;;;;14.35;7.47;;;;;;;;;;6207735;23;20027;-81
2021/12/26 09:01:25;;;;;;;12.07;5.93;;;;;;;;;;6208314;23;20009;-81
2021/12/26 09:03:51;;;;;;;11.55;6.82;;;;;;;;;;6210940;23;20356;-81
2021/12/26 09:06:17;;;;;;;10.68;6.35;;;;;;;;;;6211078;23;20221;-81
2021/12/26 09:08:44;;;;;;;12.02;6.95;;;;;;;;;;6211019;23;20099;-81
2021/12/26 09:11:10;;;;;;;9.77;6.60;;;;;;;;;;6185829;23;20028;-81
2021/12/26 09:13:36;;;;;;;11.23;6.57;;;;;;;;;;6210919;23;20021;-81
2021/12/26 09:16:03;;;;;;;12.35;6.85;;;;;;;;;;6211031;23;20510;-82
2021/12/26 09:18:29;;;;;;;10.90;6.63;;;;;;;;;;6185916;23;20087;-81
2021/12/26 09:20:55;;;;;;;11.77;7.10;;;;;;;;;;6210835;23;20019;-81
2021/12/26 09:23:21;;;;;;;10.63;6.57;;;;;;;;;;6210939;23;20027;-81
2021/12/26 09:25:57;;;;;;;12.10;7.13;;;;;;;;;;6211030;23;20020;-82
2021/12/26 09:28:23;;;;;;;11.75;6.88;;;;;;;;;;6210706;23;20016;-82
2021/12/26 09:30:49;;;;;;;12.27;6.72;;;;;;;;;;6211013;23;20438;-83
2021/12/26 09:33:19;;;;;;;13.43;6.60;;;;;;;;;;6211556;23;20016;-82
2021/12/26 09:35:52;;;;;;;11.80;7.07;;;;;;;;;;6211675;23;20024;-82
2021/12/26 09:38:18;;;;;;;12.02;7.03;;;;;;;;;;6211341;23;20087;-82
2021/12/26 09:40:45;;;;;;;10.88;7.13;;;;;;;;;;6210842;23;20027;-82
2021/12/26 09:43:11;;;;;;;10.18;6.80;;;;;;;;;;6185474;23;20028;-82
2021/12/26 09:45:37;;;;;;;11.63;7.03;;;;;;;;;;6211226;23;20398;-82
2021/12/26 09:48:03;;;;;;;11.63;7.05;;;;;;;;;;6186037;23;20350;-82
2021/12/26 09:50:30;;;;;;;11.50;6.85;;;;;;;;;;6186095;23;20017;-82
2021/12/26 09:52:56;;;;;;;11.57;6.78;;;;;;;;;;6211631;23;20020;-81
2021/12/26 09:55:26;;;;;;;13.43;7.18;;;;;;;;;;6211143;23;20442;-80
2021/12/26 09:57:52;;;;;;;9.88;6.25;;;;;;;;;;6212071;23;20342;-80
2021/12/26 10:00:21;;;;;;;10.43;6.70;;;;;;;;;;6211170;23;20460;-81
2021/12/26 10:02:47;;;;;;;10.25;6.78;;;;;;;;;;6211399;23;20406;-82
2021/12/26 10:05:13;;;;;;;10.80;6.88;;;;;;;;;;6211425;23;20147;-81
2021/12/26 10:07:39;;;;;;;11.52;6.13;;;;;;;;;;6211498;23;20486;-81
2021/12/26 10:10:07;;;;;;;9.85;6.50;;;;;;;;;;6211141;23;20016;-81
2021/12/26 10:12:40;;;;;;;10.85;6.38;;;;;;;;;;6208411;23;20020;-81
2021/12/26 10:15:07;;;;;;;10.95;6.25;;;;;;;;;;6206659;23;20039;-82
2021/12/26 10:17:33;;;;;;;9.35;5.80;;;;;;;;;;6183611;23;20133;-81
2021/12/26 10:20:01;;;;;;;10.95;6.00;;;;;;;;;;6207965;23;20008;-81
2021/12/26 10:22:29;;;;;;;10.10;6.10;;;;;;;;;;6208650;23;20016;-82
2021/12/26 10:24:56;;;;;;;9.82;5.78;;;;;;;;;;6185588;23;20020;-81
2021/12/26 10:27:24;;;;;;;11.55;6.88;;;;;;;;;;6209172;23;20017;-81
2021/12/26 10:29:54;;;;;;;10.55;7.03;;;;;;;;;;6184356;23;20458;-81
2021/12/26 10:32:22;;;;;;;10.93;6.55;;;;;;;;;;6209103;23;20434;-81
2021/12/26 10:34:49;;;;;;;10.98;5.90;;;;;;;;;;6209385;23;20013;-80
2021/12/26 10:37:15;;;;;;;9.55;6.43;;;;;;;;;;6209538;23;20039;-81
2021/12/26 10:39:43;;;;;;;10.32;6.15;;;;;;;;;;6184532;23;20538;-81
2021/12/26 10:42:13;;;;;;;10.45;5.65;;;;;;;;;;6209079;23;20099;-81
2021/12/26 10:44:44;;;;;;;10.52;6.63;;;;;;;;;;6209398;23;20091;-81
2021/12/26 10:47:16;;;;;;;12.63;6.43;;;;;;;;;;6209292;23;20513;-81
2021/12/26 10:49:52;;;;;;;10.90;6.28;;;;;;;;;;6209211;23;20354;-82
2021/12/26 10:52:23;;;;;;;10.05;5.75;;;;;;;;;;6209258;23;20068;-81
2021/12/26 10:54:54;;;;;;;9.68;5.72;;;;;;;;;;6184155;23;20012;-81
2021/12/26 10:57:22;;;;;;;9.75;5.45;;;;;;;;;;6209061;23;20015;-82
2021/12/26 10:59:58;;;;;;;8.88;5.38;;;;;;;;;;6184075;23;20032;-81
2021/12/26 11:02:26;;;;;;;10.73;5.38;;;;;;;;;;6209163;23;20193;-81
2021/12/26 11:04:58;;;;;;;10.55;6.20;;;;;;;;;;6209265;23;20342;-81
2021/12/26 11:07:25;;;;;;;11.48;6.25;;;;;;;;;;6209063;23;20017;-82
2021/12/26 11:10:01;;;;;;;10.75;5.88;;;;;;;;;;6208897;23;20474;-81
2021/12/26 11:12:37;;;;;;;10.98;6.40;;;;;;;;;;6208881;23;20017;-81
2021/12/26 11:15:03;;;;;;;9.85;6.13;;;;;;;;;;6209210;23;20009;-81
2021/12/26 11:17:34;;;;;;;11.38;6.07;;;;;;;;;;6209149;23;20024;-81
2021/12/26 11:20:00;;;;;;;10.20;5.97;;;;;;;;;;6208783;23;20020;-80
2021/12/26 11:22:26;;;;;;;8.15;5.45;;;;;;;;;;6208914;23;20460;-81
2021/12/26 11:24:53;;;;;;;8.98;4.85;;;;;;;;;;6208625;23;20455;-81
2021/12/26 11:27:23;;;;;;;10.40;5.53;;;;;;;;;;6208805;23;20440;-81
2021/12/26 11:29:49;;;;;;;11.25;5.88;;;;;;;;;;6183830;23;20017;-81
2021/12/26 11:32:24;;;;;;;12.52;6.00;;;;;;;;;;6208738;23;20048;-82
2021/12/26 11:34:50;;;;;;;9.45;5.22;;;;;;;;;;6208867;23;20019;-81
2021/12/26 11:37:17;;;;;;;9.10;5.40;;;;;;;;;;6208698;23;20071;-82
2021/12/26 11:39:43;;;;;;;9.50;5.40;;;;;;;;;;6210371;23;20014;-81
2021/12/26 11:42:29;;;;;;;10.20;5.57;;;;;;;;;;6208486;23;20473;-82
2021/12/26 11:45:06;;;;;;;10.10;5.50;;;;;;;;;;6184044;23;20087;-83
2021/12/26 11:47:39;;;;;;;8.25;5.63;;;;;;;;;;6208631;23;20052;-82
2021/12/26 11:50:24;;;;;;;10.50;5.87;;;;;;;;;;6209108;23;20013;-81
2021/12/26 11:52:50;;;;;;;;;;;;;;;;;;6184509;23;20265;-82
2021/12/26 11:55:24;;;;;;;8.82;4.97;;;;;;;;;;6208503;23;19911;-82
2021/12/26 11:58:23;;;;;;;8.82;5.22;;;;;;;;;;6183563;23;20009;-81
2021/12/26 12:00:50;;;;;;;8.98;5.07;;;;;;;;;;6143881;23;20100;-82
2021/12/26 12:03:18;;;;;;;9.10;5.40;;;;;;;;;;6208449;23;20020;-82
2021/12/26 12:05:45;;;;;;;8.80;5.20;;;;;;;;;;6208975;23;20016;-82
2021/12/26 12:08:13;;;;;;;10.70;5.28;;;;;;;;;;6208341;23;20021;-82
2021/12/26 12:10:54;;;;;;;9.73;5.63;;;;;;;;;;6183355;23;20366;-82
2021/12/26 12:13:23;;;;;;;10.65;5.70;;;;;;;;;;6208346;23;20017;-82
2021/12/26 12:16:02;;;;;;;8.13;5.00;;;;;;;;;;6208611;23;20009;-82
2021/12/26 12:18:30;;;;;;;10.40;5.55;;;;;;;;;;6208595;23;20024;-83
2021/12/26 12:21:14;;;;;;;11.25;6.05;;;;;;;;;;6208352;23;20008;-82
2021/12/26 12:23:58;;;;;;;11.32;5.78;;;;;;;;;;6208649;23;20631;-82
2021/12/26 12:26:36;;;;;;;10.10;5.55;;;;;;;;;;6208521;23;20115;-82
2021/12/26 12:29:02;;;;;;;8.43;5.53;;;;;;;;;;6208526;23;20023;-82
2021/12/26 12:31:28;;;;;;;9.85;5.57;;;;;;;;;;6208442;23;20370;-82
2021/12/26 12:34:21;;;;;;;9.30;5.22;;;;;;;;;;6208247;23;20016;-82
2021/12/26 12:36:47;;;;;;;10.73;5.78;;;;;;;;;;6202508;23;20009;-82
2021/12/26 12:39:20;;;;;;;9.73;5.70;;;;;;;;;;6208549;23;20019;-82
2021/12/26 12:41:51;;;;;;;9.35;5.72;;;;;;;;;;6207930;23;20155;-82
2021/12/26 12:44:23;;;;;;;10.38;5.85;;;;;;;;;;6208170;23;20009;-82
2021/12/26 12:46:58;;;;;;;10.45;5.78;;;;;;;;;;6208468;23;20019;-82
2021/12/26 12:49:41;;;;;;;8.98;4.63;;;;;;;;;;6208237;23;20163;-81
2021/12/26 12:52:07;;;;;;;12.65;6.30;;;;;;;;;;6208172;23;20340;-82
2021/12/26 12:54:34;;;;;;;11.15;6.30;;;;;;;;;;6208966;23;20009;-82
2021/12/26 12:57:01;;;;;;;10.05;6.07;;;;;;;;;;6208375;23;20079;-82
2021/12/26 12:59:30;;;;;;;10.02;5.90;;;;;;;;;;6207964;23;20095;-81
2021/12/26 13:01:56;;;;;;;9.95;5.53;;;;;;;;;;6208222;23;20394;-82
2021/12/26 13:04:28;;;;;;;10.52;5.80;;;;;;;;;;6207975;23;20205;-83
2021/12/26 13:06:55;;;;;;;11.63;6.22;;;;;;;;;;6208030;23;20008;-83
2021/12/26 13:09:21;;;;;;;9.40;5.43;;;;;;;;;;6208577;23;20350;-83
2021/12/26 13:11:52;;;;;;;9.32;6.03;;;;;;;;;;6207881;23;20055;-82
2021/12/26 13:14:40;;;;;;;10.35;5.93;;;;;;;;;;6208328;23;20012;-82
2021/12/26 13:17:07;;;;;;;10.73;5.97;;;;;;;;;;6208206;23;20031;-82
2021/12/26 13:19:34;;;;;;;10.75;6.25;;;;;;;;;;6207912;23;20342;-81
2021/12/26 13:22:01;;;;;;;10.63;5.68;;;;;;;;;;6208253;23;20040;-82
2021/12/26 13:24:31;;;;;;;10.75;5.75;;;;;;;;;;6207889;23;20347;-82
2021/12/26 13:26:57;;;;;;;9.80;5.43;;;;;;;;;;6208213;23;20019;-82
2021/12/26 13:29:24;;;;;;;10.27;5.65;;;;;;;;;;6208185;23;20094;-81
2021/12/26 13:31:50;;;;;;;9.82;5.63;;;;;;;;;;6207847;23;20342;-81
2021/12/26 13:34:16;;;;;;;11.90;5.50;;;;;;;;;;6207972;23;20008;-81
2021/12/26 13:36:42;;;;;;;9.20;5.90;;;;;;;;;;6183016;23;20020;-81
2021/12/26 13:39:16;;;;;;;10.95;6.40;;;;;;;;;;6207884;23;20016;-81
2021/12/26 13:41:44;;;;;;;9.80;5.90;;;;;;;;;;6207660;23;20075;-81
2021/12/26 13:44:11;;;;;;;9.93;6.07;;;;;;;;;;6208208;23;20095;-81
2021/12/26 13:46:55;;;;;;;9.80;5.28;;;;;;;;;;6207913;23;20442;-81
2021/12/26 13:49:21;;;;;;;;;;;;;;;;;;6210141;23;20146;-81
2021/12/26 13:51:54;;;;;;;10.75;5.80;;;;;;;;;;6209784;23;19947;-81
2021/12/26 13:54:23;;;;;;;9.77;6.22;;;;;;;;;;6210350;23;20091;-81
2021/12/26 13:56:56;;;;;;;10.00;6.13;;;;;;;;;;6209759;23;20047;-81
2021/12/26 13:59:31;;;;;;;9.27;5.60;;;;;;;;;;6209782;23;20013;-81
2021/12/26 14:01:58;;;;;;;10.60;5.82;;;;;;;;;;6209797;23;20009;-81
2021/12/26 14:04:25;;;;;;;9.18;5.65;;;;;;;;;;6184962;23;20013;-81
2021/12/26 14:06:51;;;;;;;9.05;5.57;;;;;;;;;;6209573;23;20667;-81
2021/12/26 14:09:17;;;;;;;10.18;5.40;;;;;;;;;;6209843;23;20016;-81
2021/12/26 14:11:44;;;;;;;9.48;5.28;;;;;;;;;;6209873;23;20088;-82
2021/12/26 14:14:10;;;;;;;9.20;5.43;;;;;;;;;;6209470;23;20443;-82
2021/12/26 14:16:43;;;;;;;11.50;6.43;;;;;;;;;;6209945;23;20020;-81
2021/12/26 14:19:13;;;;;;;9.05;5.70;;;;;;;;;;6209586;23;20019;-82
2021/12/26 14:21:50;;;;;;;9.02;5.43;;;;;;;;;;6209776;23;20013;-83
2021/12/26 14:24:21;;;;;;;9.55;5.57;;;;;;;;;;6209496;23;20016;-82
2021/12/26 14:26:47;;;;;;;9.70;5.50;;;;;;;;;;6209346;23;20013;-82
2021/12/26 14:29:15;;;;;;;9.73;5.90;;;;;;;;;;6209512;23;20469;-83
2021/12/26 14:31:48;;;;;;;9.52;5.65;;;;;;;;;;6208668;23;20032;-82
2021/12/26 14:34:16;;;;;;;8.43;5.40;;;;;;;;;;6209118;23;20019;-82
2021/12/26 14:36:50;;;;;;;9.45;5.47;;;;;;;;;;6209250;23;20320;-81
2021/12/26 14:39:16;;;;;;;11.20;6.30;;;;;;;;;;6209166;23;20015;-81
2021/12/26 14:41:44;;;;;;;12.82;9.13;;;;;;;;;;6208899;23;20075;-81
2021/12/26 14:44:11;;;;;;;10.70;6.63;;;;;;;;;;6208914;23;20020;-81
2021/12/26 14:46:37;;;;;;;17.70;12.98;;;;;;;;;;6207188;23;20055;-82
2021/12/26 14:49:11;;;;;;;19.38;12.40;;;;;;;;;;6184428;23;20460;-81
2021/12/26 14:51:37;;;;;;;50.20;31.00;;;;;;;;;;6208822;23;20027;-81